HETR

El Tor Airport

Airport
ICAO code
HETR
IATA Code
ELT
Summary
ICAO Region
AFI
ICAO Territory
Location

El Tor, Janub Sina'

Serving
El Tor
Elevation
115 ft
Coordinates
28° 12' 33" N , 33° 38' 44" E
Metar
HETR 151700Z 30009KT CAVOK 32/20 Q1001

Runways

Designator Length Width Surface Rops
10/28 3000 45 ASP No/No

Airport map

Aerial View

SKYbrary Partners:

Safety knowledge contributed by: